createdAt,value
2022-09-26T00:01:43.077Z,12.79
2022-09-26T00:04:32.400Z,12.79
2022-09-26T00:07:01.205Z,12.76
2022-09-26T00:09:29.456Z,12.74
2022-09-26T00:11:57.915Z,12.74
2022-09-26T00:14:28.970Z,12.74
2022-09-26T00:16:57.551Z,12.73
2022-09-26T00:19:26.257Z,12.72
2022-09-26T00:21:55.062Z,12.73
2022-09-26T00:24:23.582Z,12.76
2022-09-26T00:26:51.804Z,12.74
2022-09-26T00:29:19.905Z,12.75
2022-09-26T00:31:49.173Z,12.78
2022-09-26T00:34:19.769Z,12.79
2022-09-26T00:36:49.887Z,12.78
2022-09-26T00:39:18.573Z,12.74
2022-09-26T00:41:46.981Z,12.74
2022-09-26T00:44:46.304Z,12.74
2022-09-26T00:47:39.031Z,12.72
2022-09-26T00:50:36.821Z,12.69
2022-09-26T00:53:12.997Z,12.65
2022-09-26T00:55:48.149Z,12.62
2022-09-26T00:58:35.936Z,12.60
2022-09-26T01:01:05.024Z,12.58
2022-09-26T01:03:36.297Z,12.56
2022-09-26T01:06:05.181Z,12.52
2022-09-26T01:08:41.665Z,12.50
2022-09-26T01:11:16.664Z,12.45
2022-09-26T01:13:45.893Z,12.39
2022-09-26T01:16:14.323Z,12.36
2022-09-26T01:18:44.034Z,12.33
2022-09-26T01:22:04.826Z,12.29
2022-09-26T01:25:00.906Z,12.24
2022-09-26T01:27:44.352Z,12.20
2022-09-26T01:30:22.944Z,12.16
2022-09-26T01:33:18.230Z,12.12
2022-09-26T01:36:28.763Z,12.08
2022-09-26T01:39:10.681Z,12.04
2022-09-26T01:41:59.335Z,11.99
2022-09-26T01:44:41.043Z,11.93
2022-09-26T01:47:31.732Z,11.89
2022-09-26T01:50:35.921Z,11.83
2022-09-26T01:53:17.786Z,11.80
2022-09-26T01:55:56.642Z,11.77
2022-09-26T01:58:53.580Z,11.73
2022-09-26T02:01:26.345Z,11.68
2022-09-26T02:04:02.417Z,11.67
2022-09-26T02:06:55.705Z,11.65
2022-09-26T02:09:39.845Z,11.62
2022-09-26T02:12:23.033Z,11.61
2022-09-26T02:14:56.249Z,11.60
2022-09-26T02:17:38.473Z,11.59
2022-09-26T02:20:15.351Z,11.56
2022-09-26T02:22:44.937Z,11.55
2022-09-26T02:25:16.657Z,11.56
2022-09-26T02:27:44.918Z,11.57
2022-09-26T02:30:13.783Z,11.57
2022-09-26T02:32:42.260Z,11.57
2022-09-26T02:35:29.766Z,11.57
2022-09-26T02:37:59.355Z,11.55
2022-09-26T02:40:48.834Z,11.53
2022-09-26T02:43:48.122Z,11.50
2022-09-26T02:46:31.686Z,11.46
2022-09-26T02:49:59.687Z,11.44
2022-09-26T02:53:05.353Z,11.42
2022-09-26T02:56:30.201Z,11.40
2022-09-26T02:59:33.670Z,11.39
2022-09-26T03:02:32.796Z,11.37
2022-09-26T03:05:20.991Z,11.36
2022-09-26T03:08:25.221Z,11.36
2022-09-26T03:10:59.848Z,11.36
2022-09-26T03:13:29.682Z,11.36
2022-09-26T03:15:59.594Z,11.35
2022-09-26T03:18:36.931Z,11.35
2022-09-26T03:21:05.406Z,11.34
2022-09-26T03:23:34.439Z,11.33
2022-09-26T03:26:16.143Z,11.31
2022-09-26T03:28:53.813Z,11.31
2022-09-26T03:31:24.796Z,11.31
2022-09-26T03:33:59.862Z,11.31
2022-09-26T03:36:28.806Z,11.31
2022-09-26T03:38:57.093Z,11.39
2022-09-26T03:41:36.892Z,11.47
2022-09-26T03:44:14.263Z,11.52
2022-09-26T03:47:35.501Z,11.57
2022-09-26T03:50:06.786Z,11.62
2022-09-26T03:52:36.606Z,11.66
2022-09-26T03:55:05.542Z,11.69
2022-09-26T03:57:33.769Z,11.71
2022-09-26T04:00:14.904Z,11.74
2022-09-26T04:02:46.592Z,11.77
2022-09-26T04:05:28.562Z,11.77
2022-09-26T04:07:58.608Z,11.78
2022-09-26T04:10:27.883Z,11.81
2022-09-26T04:12:57.055Z,11.85
2022-09-26T04:15:26.010Z,11.88
2022-09-26T04:18:04.565Z,11.89
2022-09-26T04:20:32.702Z,11.89
2022-09-26T04:23:01.048Z,11.91
2022-09-26T04:25:29.735Z,11.93
2022-09-26T04:27:57.859Z,11.96
2022-09-26T04:30:26.058Z,11.99
2022-09-26T04:32:57.968Z,12.02
2022-09-26T04:35:35.178Z,12.05
2022-09-26T04:38:04.813Z,12.06
2022-09-26T04:40:34.122Z,12.06
2022-09-26T04:43:08.313Z,12.05
2022-09-26T04:45:36.628Z,12.06
2022-09-26T04:48:04.812Z,12.09
2022-09-26T04:50:44.689Z,12.12
2022-09-26T04:53:13.328Z,12.13
2022-09-26T04:55:48.400Z,12.16
2022-09-26T04:58:17.448Z,12.18
2022-09-26T05:00:48.045Z,12.22
2022-09-26T05:03:18.578Z,12.26
2022-09-26T05:05:50.481Z,12.28
2022-09-26T05:08:18.620Z,12.31
2022-09-26T05:10:56.689Z,12.35
2022-09-26T05:13:26.423Z,12.40
2022-09-26T05:15:55.875Z,12.45
2022-09-26T05:18:26.257Z,12.49
2022-09-26T05:20:56.303Z,12.54
2022-09-26T05:23:45.402Z,12.59
2022-09-26T05:26:52.863Z,12.64
2022-09-26T05:29:21.925Z,12.67
2022-09-26T05:31:55.245Z,12.69
2022-09-26T05:34:26.136Z,12.73
2022-09-26T05:36:54.441Z,12.74
2022-09-26T05:39:42.674Z,12.75
2022-09-26T05:42:11.915Z,12.75
2022-09-26T05:44:40.077Z,12.79
2022-09-26T05:47:09.011Z,12.82
2022-09-26T05:49:37.636Z,12.86
2022-09-26T05:52:05.939Z,12.90
2022-09-26T05:54:34.600Z,12.93
2022-09-26T05:57:05.619Z,12.94
2022-09-26T05:59:46.015Z,12.94
2022-09-26T06:03:03.722Z,12.97
2022-09-26T06:05:44.539Z,13.00
2022-09-26T06:08:17.433Z,13.08
2022-09-26T06:11:16.200Z,13.12
2022-09-26T06:13:46.026Z,13.20
2022-09-26T06:16:19.533Z,13.24
2022-09-26T06:18:51.068Z,13.29
2022-09-26T06:21:20.348Z,13.32
2022-09-26T06:23:52.010Z,13.36
2022-09-26T06:26:25.709Z,13.39
2022-09-26T06:29:02.477Z,13.44
2022-09-26T06:31:35.366Z,13.51
2022-09-26T06:34:15.107Z,13.60
2022-09-26T06:36:47.202Z,13.66
2022-09-26T06:39:15.536Z,13.67
2022-09-26T06:41:45.641Z,13.68
2022-09-26T06:44:29.865Z,13.67
2022-09-26T06:47:30.186Z,13.67
2022-09-26T06:50:24.083Z,13.67
2022-09-26T06:52:55.867Z,13.70
2022-09-26T06:55:25.908Z,13.75
2022-09-26T06:57:54.136Z,13.78
2022-09-26T07:00:26.370Z,13.83
2022-09-26T07:03:03.074Z,13.88
2022-09-26T07:05:56.722Z,13.93
2022-09-26T07:08:50.047Z,13.97
2022-09-26T07:11:35.007Z,14.01
2022-09-26T07:14:05.253Z,14.02
2022-09-26T07:16:33.746Z,14.02
2022-09-26T07:19:29.191Z,14.00
2022-09-26T07:22:06.399Z,13.99
2022-09-26T07:24:46.381Z,13.97
2022-09-26T07:27:16.299Z,13.97
2022-09-26T07:29:47.360Z,13.96
2022-09-26T07:32:16.746Z,13.92
2022-09-26T07:35:03.528Z,13.89
2022-09-26T07:37:32.381Z,13.88
2022-09-26T07:40:01.973Z,13.88
2022-09-26T07:42:32.800Z,13.89
2022-09-26T07:48:07.633Z,13.99
2022-09-26T07:51:11.768Z,14.06
2022-09-26T07:53:46.890Z,14.12
2022-09-26T07:56:36.674Z,14.18
2022-09-26T08:00:12.861Z,14.27
2022-09-26T08:02:54.448Z,14.35
2022-09-26T08:20:01.188Z,15.47
2022-09-26T08:22:30.047Z,15.64
2022-09-26T08:25:00.322Z,15.65
2022-09-26T08:27:48.587Z,15.65
2022-09-26T08:30:17.289Z,15.67
2022-09-26T08:32:58.900Z,15.69
2022-09-26T08:35:27.069Z,15.73
2022-09-26T08:37:56.529Z,15.77
2022-09-26T08:41:40.164Z,15.83
2022-09-26T08:44:36.814Z,15.87
2022-09-26T08:47:49.499Z,15.93
2022-09-26T08:50:53.662Z,16.01
2022-09-26T08:53:29.642Z,16.09
2022-09-26T08:56:01.382Z,16.15
2022-09-26T08:58:52.615Z,16.17
2022-09-26T09:01:36.251Z,16.19
2022-09-26T09:04:54.038Z,16.28
2022-09-26T09:07:26.185Z,16.37
2022-09-26T09:10:01.616Z,16.43
2022-09-26T09:13:34.593Z,16.50
2022-09-26T09:17:19.988Z,16.56
2022-09-26T09:20:53.863Z,16.62
2022-09-26T09:23:43.340Z,16.68
2022-09-26T09:29:28.974Z,16.76
2022-09-26T09:32:52.086Z,16.81
2022-09-26T09:35:48.717Z,16.83
2022-09-26T09:38:38.880Z,16.85
2022-09-26T09:41:31.535Z,16.88
2022-09-26T09:44:05.749Z,16.89
2022-09-26T09:46:42.672Z,16.88
2022-09-26T09:49:24.328Z,16.90
2022-09-26T09:52:20.100Z,16.96
2022-09-26T09:55:35.336Z,17.05
2022-09-26T09:58:30.090Z,17.13
2022-09-26T10:01:16.133Z,17.21
2022-09-26T10:04:04.105Z,17.32
2022-09-26T10:06:45.244Z,17.46
2022-09-26T10:09:40.163Z,17.58
2022-09-26T10:13:01.955Z,17.69
2022-09-26T10:16:08.621Z,17.81
2022-09-26T10:19:08.692Z,17.94
2022-09-26T10:21:41.842Z,18.04
2022-09-26T10:24:40.984Z,18.13
2022-09-26T10:27:37.945Z,18.16
2022-09-26T10:30:34.193Z,18.10
2022-09-26T10:33:25.242Z,18.02
2022-09-26T10:36:30.640Z,17.95
2022-09-26T10:39:23.685Z,17.88
2022-09-26T10:41:58.615Z,17.83
2022-09-26T10:44:36.731Z,17.78
2022-09-26T10:47:15.537Z,17.73
2022-09-26T10:50:07.387Z,17.66
2022-09-26T10:53:10.674Z,17.59
2022-09-26T10:55:47.525Z,17.52
2022-09-26T10:58:27.789Z,17.44
2022-09-26T11:01:00.653Z,17.38
2022-09-26T11:03:43.277Z,17.34
2022-09-26T11:06:40.632Z,17.29
2022-09-26T11:09:28.808Z,17.29
2022-09-26T11:11:57.094Z,17.31
2022-09-26T11:14:31.339Z,17.29
2022-09-26T11:17:03.405Z,17.27
2022-09-26T11:19:58.408Z,17.10
2022-09-26T11:22:41.607Z,16.89
2022-09-26T11:25:25.414Z,16.81
2022-09-26T11:28:14.288Z,16.83
2022-09-26T11:31:29.348Z,16.86
2022-09-26T11:34:45.319Z,16.84
2022-09-26T11:37:38.525Z,16.82
2022-09-26T11:40:53.042Z,16.79
2022-09-26T11:43:49.977Z,16.76
2022-09-26T11:47:19.215Z,16.79
2022-09-26T11:50:24.019Z,16.94
2022-09-26T11:53:13.832Z,17.05
2022-09-26T11:56:18.249Z,17.12
2022-09-26T11:59:24.316Z,17.22
2022-09-26T12:02:41.069Z,17.29
2022-09-26T12:05:34.308Z,17.38
2022-09-26T12:08:30.325Z,17.45
2022-09-26T12:11:57.104Z,17.58
2022-09-26T12:14:52.908Z,17.66
2022-09-26T12:17:41.036Z,17.70
2022-09-26T12:20:49.661Z,17.69
2022-09-26T12:23:33.173Z,17.70
2022-09-26T12:26:25.673Z,17.71
2022-09-26T12:29:18.262Z,17.74
2022-09-26T12:32:14.741Z,17.74
2022-09-26T12:34:48.832Z,17.74
2022-09-26T12:38:07.169Z,17.73
2022-09-26T12:41:14.307Z,17.71
2022-09-26T12:44:02.246Z,17.67
2022-09-26T12:46:58.891Z,17.67
2022-09-26T12:49:33.390Z,17.66
2022-09-26T12:52:33.718Z,17.63
2022-09-26T12:55:40.733Z,17.61
2022-09-26T12:58:55.368Z,17.62
2022-09-26T13:01:58.155Z,17.65
2022-09-26T13:05:07.380Z,17.65
2022-09-26T13:08:11.779Z,17.67
2022-09-26T13:11:06.484Z,17.68
2022-09-26T13:13:46.986Z,17.66
2022-09-26T13:16:46.788Z,17.63
2022-09-26T13:19:52.887Z,17.61
2022-09-26T13:22:39.024Z,17.57
2022-09-26T13:25:22.446Z,17.52
2022-09-26T13:28:09.776Z,17.47
2022-09-26T13:30:48.706Z,17.42
2022-09-26T13:33:36.069Z,17.35
2022-09-26T13:36:04.940Z,17.26
2022-09-26T13:38:46.127Z,17.20
2022-09-26T13:41:42.888Z,17.16
2022-09-26T13:44:37.193Z,17.08
2022-09-26T13:47:31.967Z,16.99
2022-09-26T13:50:36.390Z,16.89
2022-09-26T13:53:38.089Z,16.83
2022-09-26T13:56:34.159Z,16.78
2022-09-26T13:59:32.535Z,16.73
2022-09-26T14:02:26.501Z,16.66
2022-09-26T14:05:03.767Z,16.60
2022-09-26T14:07:56.276Z,16.53
2022-09-26T14:10:27.107Z,16.48
2022-09-26T14:13:03.459Z,16.43
2022-09-26T14:15:49.689Z,16.38
2022-09-26T14:18:28.275Z,16.31
2022-09-26T14:21:07.689Z,16.27
2022-09-26T14:23:46.885Z,16.22
2022-09-26T14:26:27.126Z,16.18
2022-09-26T14:29:11.957Z,16.15
2022-09-26T14:31:40.697Z,16.14
2022-09-26T14:34:25.979Z,16.13
2022-09-26T14:36:59.160Z,16.14
2022-09-26T14:39:37.170Z,16.13
2022-09-26T14:43:27.544Z,16.12
2022-09-26T14:46:15.812Z,16.11
2022-09-26T14:48:45.197Z,16.11
2022-09-26T14:51:16.643Z,16.10
2022-09-26T14:53:47.861Z,16.16
2022-09-26T14:56:45.147Z,16.24
2022-09-26T14:59:17.021Z,16.28
2022-09-26T15:01:46.427Z,16.32
2022-09-26T15:04:21.543Z,16.34
2022-09-26T15:07:01.229Z,16.36
2022-09-26T15:09:49.092Z,16.37
2022-09-26T15:12:54.363Z,16.40
2022-09-26T15:15:35.502Z,16.43
2022-09-26T15:18:27.192Z,16.45
2022-09-26T15:21:04.698Z,16.47
2022-09-26T15:23:44.761Z,16.47
2022-09-26T15:26:18.200Z,16.49
2022-09-26T15:28:49.403Z,16.49
2022-09-26T15:31:43.578Z,16.51
2022-09-26T15:34:20.072Z,16.54
2022-09-26T15:36:56.769Z,16.55
2022-09-26T15:39:31.352Z,16.57
2022-09-26T15:42:38.009Z,16.57
2022-09-26T15:45:35.634Z,16.59
2022-09-26T15:48:24.162Z,16.59
2022-09-26T15:51:00.292Z,16.59
2022-09-26T15:53:46.597Z,16.60
2022-09-26T15:56:29.046Z,16.59
2022-09-26T15:59:20.754Z,16.60
2022-09-26T16:01:49.245Z,16.60
2022-09-26T16:04:30.324Z,16.58
2022-09-26T16:07:21.584Z,16.59
2022-09-26T16:09:51.590Z,16.57
2022-09-26T16:12:24.756Z,16.56
2022-09-26T16:15:17.064Z,16.56
2022-09-26T16:17:54.725Z,16.55
2022-09-26T16:20:32.524Z,16.53
2022-09-26T16:23:05.476Z,16.51
2022-09-26T16:25:54.825Z,16.46
2022-09-26T16:28:45.066Z,16.44
2022-09-26T16:31:29.235Z,16.43
2022-09-26T16:33:59.203Z,16.42
2022-09-26T16:36:34.909Z,16.40
2022-09-26T16:39:07.352Z,16.36
2022-09-26T16:42:02.244Z,16.33
2022-09-26T16:44:41.356Z,16.31
2022-09-26T16:47:32.005Z,16.26
2022-09-26T16:50:33.288Z,16.22
2022-09-26T16:53:03.068Z,16.18
2022-09-26T16:55:35.866Z,16.15
2022-09-26T16:58:05.287Z,16.12
2022-09-26T17:00:54.014Z,16.06
2022-09-26T17:03:31.931Z,16.03
2022-09-26T17:06:00.557Z,16.01
2022-09-26T17:08:29.204Z,15.99
2022-09-26T17:11:03.155Z,15.95
2022-09-26T17:13:35.529Z,15.91
2022-09-26T17:16:04.079Z,15.87
2022-09-26T17:18:34.981Z,15.82
2022-09-26T17:21:03.593Z,15.80
2022-09-26T17:23:41.594Z,15.77
2022-09-26T17:26:24.343Z,15.72
2022-09-26T17:28:53.548Z,15.65
2022-09-26T17:31:22.082Z,15.58
2022-09-26T17:33:53.724Z,15.52
2022-09-26T17:36:28.264Z,15.47
2022-09-26T17:38:59.658Z,15.41
2022-09-26T17:41:29.016Z,15.37
2022-09-26T17:44:00.791Z,15.34
2022-09-26T17:46:29.634Z,15.31
2022-09-26T17:48:59.391Z,15.27
2022-09-26T17:51:29.417Z,15.22
2022-09-26T17:53:57.771Z,15.18
2022-09-26T17:56:26.583Z,15.13
2022-09-26T17:58:57.113Z,15.11
2022-09-26T18:01:30.318Z,15.08
2022-09-26T18:04:03.949Z,15.05
2022-09-26T18:06:33.103Z,15.02
2022-09-26T18:09:10.011Z,14.98
2022-09-26T18:11:39.032Z,14.93
2022-09-26T18:14:15.417Z,14.90
2022-09-26T18:16:46.599Z,14.89
2022-09-26T18:19:14.975Z,14.87
2022-09-26T18:21:43.293Z,14.84
2022-09-26T18:24:19.864Z,14.81
2022-09-26T18:26:50.929Z,14.78
2022-09-26T18:29:33.137Z,14.77
2022-09-26T18:32:04.526Z,14.75
2022-09-26T18:34:32.827Z,14.72
2022-09-26T18:37:01.828Z,14.70
2022-09-26T18:39:30.789Z,14.70
2022-09-26T18:42:06.241Z,14.67
2022-09-26T18:44:36.203Z,14.63
2022-09-26T18:47:12.485Z,14.62
2022-09-26T18:49:41.364Z,14.61
2022-09-26T18:52:15.703Z,14.57
2022-09-26T18:54:46.270Z,14.57
2022-09-26T18:57:32.993Z,14.58
2022-09-26T19:00:02.805Z,14.68
2022-09-26T19:02:38.621Z,14.74
2022-09-26T19:05:12.211Z,14.80
2022-09-26T19:07:40.667Z,14.85
2022-09-26T19:10:16.928Z,14.90
2022-09-26T19:12:45.198Z,14.94
2022-09-26T19:15:15.370Z,14.97
2022-09-26T19:17:43.799Z,15.00
2022-09-26T19:20:12.021Z,15.04
2022-09-26T19:22:40.297Z,15.07
2022-09-26T19:25:10.326Z,15.08
2022-09-26T19:27:57.070Z,15.10
2022-09-26T19:30:25.281Z,15.12
2022-09-26T19:32:57.147Z,15.15
2022-09-26T19:35:35.633Z,15.18
2022-09-26T19:38:17.427Z,15.20
2022-09-26T19:40:48.838Z,15.20
2022-09-26T19:43:18.371Z,15.21
2022-09-26T19:45:52.516Z,15.23
2022-09-26T19:48:23.528Z,15.22
2022-09-26T19:50:52.679Z,15.20
2022-09-26T19:53:23.929Z,15.21
2022-09-26T19:55:52.620Z,15.21
2022-09-26T19:58:25.272Z,15.22
2022-09-26T20:00:56.999Z,15.23
2022-09-26T20:03:41.937Z,15.25
2022-09-26T20:06:21.344Z,15.26
2022-09-26T20:08:53.764Z,15.24
2022-09-26T20:11:23.798Z,15.24
2022-09-26T20:14:10.523Z,15.24
2022-09-26T20:16:42.640Z,15.23
2022-09-26T20:19:19.380Z,15.21
2022-09-26T20:21:47.621Z,15.20
2022-09-26T20:24:19.169Z,15.19
2022-09-26T20:26:48.336Z,15.17
2022-09-26T20:29:17.192Z,15.17
2022-09-26T20:31:47.378Z,15.14
2022-09-26T20:34:17.265Z,15.12
2022-09-26T20:36:49.744Z,15.11
2022-09-26T20:39:26.221Z,15.12
2022-09-26T20:41:56.660Z,15.11
2022-09-26T20:44:32.937Z,15.11
2022-09-26T20:47:04.782Z,15.09
2022-09-26T20:49:42.619Z,15.07
2022-09-26T20:52:24.943Z,15.09
2022-09-26T20:54:55.262Z,15.09
2022-09-26T20:57:24.702Z,15.08
2022-09-26T20:59:52.923Z,15.09
2022-09-26T21:02:39.350Z,15.08
2022-09-26T21:05:20.340Z,15.07
2022-09-26T21:07:51.883Z,15.05
2022-09-26T21:10:25.877Z,15.05
2022-09-26T21:12:54.767Z,15.06
2022-09-26T21:15:25.321Z,15.06
2022-09-26T21:17:55.075Z,15.05
2022-09-26T21:20:30.687Z,15.05
2022-09-26T21:23:24.127Z,15.09
2022-09-26T21:25:52.304Z,15.09
2022-09-26T21:28:28.882Z,15.10
2022-09-26T21:31:05.853Z,15.09
2022-09-26T21:33:34.316Z,15.07
2022-09-26T21:36:02.634Z,15.08
2022-09-26T21:38:30.993Z,15.08
2022-09-26T21:41:00.447Z,15.07
2022-09-26T21:43:33.260Z,15.05
2022-09-26T21:46:01.508Z,15.05
2022-09-26T21:48:29.840Z,15.04
2022-09-26T21:51:00.297Z,15.03
2022-09-26T21:53:56.340Z,15.04
2022-09-26T21:56:33.155Z,15.03
2022-09-26T21:59:01.859Z,15.05
2022-09-26T22:01:30.073Z,15.05
2022-09-26T22:03:58.578Z,15.07
2022-09-26T22:06:27.246Z,15.06
2022-09-26T22:08:55.469Z,15.04
2022-09-26T22:11:23.700Z,15.05
2022-09-26T22:13:51.916Z,15.04
2022-09-26T22:16:20.143Z,15.03
2022-09-26T22:18:48.376Z,15.02
2022-09-26T22:21:16.615Z,15.00
2022-09-26T22:23:44.788Z,14.98
2022-09-26T22:26:12.972Z,14.96
2022-09-26T22:28:41.176Z,14.95
2022-09-26T22:31:09.385Z,14.94
2022-09-26T22:33:38.060Z,14.93
2022-09-26T22:36:06.623Z,14.93
2022-09-26T22:38:37.044Z,14.92
2022-09-26T22:41:07.118Z,14.93
2022-09-26T22:43:36.126Z,14.94
2022-09-26T22:46:11.922Z,14.93
2022-09-26T22:48:44.258Z,14.94
2022-09-26T22:51:14.433Z,14.92
2022-09-26T22:53:44.342Z,14.88
2022-09-26T22:56:15.214Z,14.82
2022-09-26T22:58:47.340Z,14.76
2022-09-26T23:01:22.964Z,14.71
2022-09-26T23:03:54.792Z,14.67
2022-09-26T23:06:24.357Z,14.62
2022-09-26T23:08:52.981Z,14.58
2022-09-26T23:11:22.506Z,14.56
2022-09-26T23:13:52.876Z,14.52
2022-09-26T23:16:24.012Z,14.47
2022-09-26T23:18:52.779Z,14.45
2022-09-26T23:21:24.094Z,14.40
2022-09-26T23:23:58.531Z,14.36
2022-09-26T23:26:32.066Z,14.31
2022-09-26T23:29:00.380Z,14.26
2022-09-26T23:31:29.313Z,14.21
2022-09-26T23:33:57.896Z,14.16
2022-09-26T23:36:26.265Z,14.13
2022-09-26T23:38:57.627Z,14.11
2022-09-26T23:41:26.160Z,14.08
2022-09-26T23:43:54.384Z,14.05
2022-09-26T23:46:22.673Z,14.04
2022-09-26T23:48:51.133Z,14.02
2022-09-26T23:51:19.636Z,13.99
2022-09-26T23:53:48.713Z,13.99
2022-09-26T23:56:17.025Z,13.97
2022-09-26T23:58:45.270Z,13.93
